Pagina principale
METAR-TAF:

METAR-TAF

Aeroporti :

Aeroporto di Rivolto

Udine, Italia

latitudine: 45-59N, longitudine: 013-02E, altezza: 51 m

Osservazione

Il bollettino è stato emesso 1 ora e 2 minuti fa, alle 09:55 UTC
Vento 5 kt da est/sud-est
Temperature 23°C
Umidità 44%
Pressione 1027 hPa
Visibilità 10 km o più
nessuna nube inferiore a 1500 m e nessun cumulonembo

METAR: LIPI 190955Z 12005KT CAVOK 23/10 Q1027

Ora: 12:57 (10:57 UTC)

Previsione

Il bollettino è stato emesso 2 ore e 57 minuti fa, alle 08:00 UTC
Previsione valida dal 19 alle 09 UTC al 19 alle 18 UTC
Vento 3 kt da direzioni variabili
Visibilità 10 km o più
nessuna nube inferiore a 1500 m e nessun cumulonembo
Temporaneamente
dal 19 alle 12 UTC al 19 alle 18 UTC
Vento 10 kt da sud

TAF: LIPI 190800Z 1909/1918 VRB03KT CAVOK TEMPO 1912/1918 19010KT

Osservazioni e previsioni meteorologiche di più di 4000 aeroporti (messaggi METAR e TAF).

Le stazioni disponibili sono rappresentate dai dischi gialli e rossi sulla carta.

Puntare il mouse per vedere il nome della stazione.

Clicca sopra per visualizzare le osservazioni e previsioni meteorologiche.

Per cambiare la mappa : fare clic sui pulsanti verdi con una croce nera per ingrandire, il pulsante verde con un trattino per diminuire, o sulla freccia verde per le mappe adiacenti.


METAR-TAF: